x

Virginia Beach 64 Nm East Of Virginia Beach, Va (44014) Wave Buoy

4:50pm - Tue 17th Jan 2017 All times are EST. -5 hours from GMT.

  • Sig Wave height 2.0ft
  • Swell Direction
  • Peak Period 9s
  • Average Period 5s
  • Wind
    11mph, 13mph gusts
  • Sea Temp 56°f
  • 空気 Temp 56°f
  • Sea Pressure 1019.2mb
  • Virginia Beach 64 Nm East Of Virginia Beach, Va
  • Virginia Beach 64 Nm East Of Virginia Beach, Va

More Historic Weather Station data

Upgrade to MSW Pro to gain access to the past 30 days of data for over 8000 Wavebouys and Weather Stations around the globe.

Join Pro

Comparision Forecast

View Surf forecast
   
Tue 01/17 4:50pm 2ft 9s 5s 11 13 mph 1019.2mb 56f 56f
3:50pm 2.5ft 9s 6s 7 9 mph 1019.5mb 56f 55f
2:50pm 2ft 10s 7s 11 13 mph 1020.3mb 56f 55f
1:50pm 2ft 9s 7s 7 9 mph 1020.8mb 57f 54f
12:50pm 2ft 10s 7s 7 9 mph 1021.3mb 57f 54f
11:50am 2ft 9s 6s 4 7 mph 1022.8mb 56f 53f
10:50am 1.6ft 8s 6s 4 7 mph 1024.7mb 56f 53f
9:50am 2ft 9s 6s 4 7 mph 1024.6mb 56f 53f
7:50am 2.5ft 8s 6s 7
mph
1024mb 55f 53f
6:50am 2ft 10s 6s 2 4 mph 1024mb 55f 53f
5:50am 2.5ft 9s 6s 7 9 mph 1024.2mb 55f 53f
4:50am 2.5ft 9s 6s 7 9 mph 1024.6mb 54f 53f
3:50am 2.5ft 9s 6s 4 7 mph 1024.3mb 55f 54f
2:50am 2.5ft 9s 6s 7 9 mph 1024.8mb 56f 54f
1:50am 2.5ft 9s 6s 7 9 mph 1025.2mb 58f 54f
12:50am 2.5ft 10s 6s 9 11 mph 1025.2mb 58f 54f
Mon 01/16 11:50pm 2.5ft 9s 6s 7 9 mph 1026.1mb 58f 54f
10:50pm 2.5ft 10s 6s 9
mph
1026.4mb 58f 54f
9:50pm 2.5ft 8s 6s 7 9 mph 1027.2mb 58f 54f
8:50pm 2.5ft 10s 6s 9 11 mph 1027.5mb 59f 54f
7:50pm 2.5ft 8s 6s 7 9 mph 1027.8mb 59f 53f
6:50pm 2.5ft 9s 5s 7 9 mph 1028.1mb 58f 53f
5:50pm 3ft 8s 5s 9 11 mph 1028.3mb 58f 52f
4:50pm 3ft 11s 5s 9 11 mph 1028.3mb 58f 52f
3:50pm 3.5ft 8s 5s 9 11 mph 1028.4mb 58f 52f
2:50pm 3.5ft 8s 5s 9 11 mph 1028.4mb 58f 51f
1:50pm 3.5ft 8s 5s 11 13 mph 1028.7mb 58f 51f
12:50pm 3.5ft 8s 5s 11 13 mph 1029.2mb 58f 51f
11:50am 3.5ft 7s 5s 11 13 mph 1030mb 58f 51f
10:50am 3.5ft 8s 5s 13 16 mph 1030.8mb 58f 51f
9:50am 3.5ft 8s 5s 11 16 mph 1030.7mb 58f 50f
8:50am 3.5ft 8s 5s 11 16 mph 1030.3mb 58f 50f
7:50am 3.5ft 8s 5s 13 16 mph 1030mb 57f 49f
6:50am 3.5ft 9s 5s 13 18 mph 1029.8mb 57f 49f
5:50am 3.5ft 9s 5s 13 18 mph 1029.3mb 57f 49f
4:50am 3.5ft 8s 5s 16 20 mph 1028.8mb 57f 49f
3:50am 3.5ft 8s 5s 13 18 mph 1028.9mb 57f 50f
2:50am 3.5ft 11s 5s 13 18 mph 1029.1mb 59f 49f
1:50am 3.5ft 8s 5s 13 16 mph 1029.2mb 62f 49f
12:50am 4ft 6s 5s 13 18 mph 1028.5mb 63f 49f
Sun 01/15 11:50pm 4ft 11s 5s 13 18 mph 1028.4mb 64f 49f
10:50pm 4.5ft 6s 5s 16 18 mph 1028.1mb 64f 49f
9:50pm 4.5ft 6s 5s 13 20 mph 1028.5mb 64f 49f
8:50pm 4.5ft 7s 5s 13 18 mph 1028.2mb 64f 48f
7:50pm 4.5ft 7s 5s 13 16 mph 1028.2mb 59f 47f
6:50pm 4.5ft 8s 5s 11 13 mph 1027.8mb 57f 47f
5:50pm 4.5ft 8s 5s 16 18 mph 1027.5mb 56f 47f
4:50pm 4.5ft 5s 5s 18 22 mph 1026.8mb 57f 46f
3:50pm 4.5ft 6s 5s 20 22 mph 1026.7mb 57f 46f
2:50pm 5ft 5s 5s 18 22 mph 1026.5mb 60f 45f
1:50pm 4.5ft 6s 5s 20 22 mph 1026.2mb 61f 46f
12:50pm 5.5ft 5s 5s 20 25 mph 1026.4mb 61f 46f
11:50am 5ft 5s 5s 22 27 mph 1026.6mb 62f 47f
10:50am 4.5ft 5s 5s 22 27 mph 1027.2mb 62f 47f
9:50am 4.5ft 5s 5s 20 25 mph 1027.1mb 61f 46f
8:50am 4ft 4s 4s 22 27 mph 1026.7mb 59f 46f
7:50am 4ft 11s 4s 20 25 mph 1025.9mb 58f 47f
6:50am 4ft 4s 4s 18 22 mph 1025.4mb 58f 48f
5:50am 4.5ft 11s 5s 20 25 mph 1025.1mb 58f 47f
4:50am 4.5ft 4s 4s 18 22 mph 1024.7mb 58f 47f
3:50am 4ft 10s 5s 20 25 mph 1024.6mb 58f 47f
2:50am 4ft 11s 5s 22 27 mph 1024.7mb 58f 48f
1:50am 4.5ft 11s 6s 18 20 mph 1023.9mb 59f 49f
12:50am 4.5ft 10s 6s 13 16 mph 1023.9mb 60f 50f
Sat 01/14 11:50pm 4.5ft 6s 5s 18 22 mph 1024.5mb 62f 50f
10:50pm 5ft 7s 6s 16 20 mph 1025.2mb 63f 53f
9:50pm 5ft 11s 6s 9 11 mph 1025.4mb 64f 56f
8:50pm 5ft 11s 6s 11 13 mph 1025.6mb 64f 57f
7:50pm 5ft 7s 6s 11 16 mph 1026.3mb 65f 57f
6:50pm 5ft 11s 6s 11 13 mph 1027mb 63f 56f
5:50pm 5ft 6s 6s 13 16 mph 1027.7mb 60f 56f
4:50pm 5ft 6s 5s 9 13 mph 1028.3mb 60f 56f
3:50pm 6ft 7s 5s 7 11 mph 1028.9mb 60f 57f
2:50pm 6ft 6s 6s 11 13 mph 1029.1mb 61f 56f
1:50pm 7ft 7s 6s 16 18 mph 1029.8mb 61f 55f
12:50pm 7ft 7s 6s 18 20 mph 1030.7mb 61f 55f
11:50am 7ft 8s 6s 18 22 mph 1031.9mb 61f 54f
10:50am 7ft 7s 6s 18 20 mph 1033.6mb 62f 54f
9:50am 7ft 7s 6s 20 25 mph 1034.5mb 62f 52f
8:50am 7.5ft 7s 6s 22 27 mph 1034.3mb 62f 52f
7:50am 7.5ft 6s 6s 22 27 mph 1034mb 62f 53f
6:50am 7ft 7s 5s 22 27 mph 1034.7mb 62f 53f
5:50am 6ft 6s 5s 20 27 mph 1034.7mb 61f 52f
4:50am 6ft 6s 5s 20 25 mph 1034.4mb 59f 51f
3:50am 6ft 5s 5s 25 29 mph 1033.9mb 57f 51f
2:50am 5ft 6s 5s 22 27 mph 1034.7mb 54f 52f
1:50am 5ft 6s 5s 22 27 mph 1034.6mb 54f 53f
12:50am 5ft 6s 5s 20 25 mph 1034.9mb 56f 53f
Fri 01/13 11:50pm 5ft 6s 5s 20 25 mph 1034.4mb 58f 53f